sensor_id;sensor_type;location;lat;lon;timestamp;P1;durP1;ratioP1;P2;durP2;ratioP2
25437;SDS011;13364;49.084;9.978;2023-03-23T00:01:57;1.92;;;1.30;;
25437;SDS011;13364;49.084;9.978;2023-03-23T00:04:23;2.67;;;1.63;;
25437;SDS011;13364;49.084;9.978;2023-03-23T00:06:50;3.75;;;1.40;;
25437;SDS011;13364;49.084;9.978;2023-03-23T00:09:16;2.85;;;1.50;;
25437;SDS011;13364;49.084;9.978;2023-03-23T00:11:48;3.30;;;1.65;;
25437;SDS011;13364;49.084;9.978;2023-03-23T00:14:16;1.77;;;1.58;;
25437;SDS011;13364;49.084;9.978;2023-03-23T00:16:47;1.77;;;1.55;;
25437;SDS011;13364;49.084;9.978;2023-03-23T00:19:15;2.83;;;1.75;;
25437;SDS011;13364;49.084;9.978;2023-03-23T00:21:41;2.72;;;1.60;;
25437;SDS011;13364;49.084;9.978;2023-03-23T00:24:12;2.35;;;1.80;;
25437;SDS011;13364;49.084;9.978;2023-03-23T00:26:46;4.43;;;1.77;;
25437;SDS011;13364;49.084;9.978;2023-03-23T00:29:14;2.08;;;1.45;;
25437;SDS011;13364;49.084;9.978;2023-03-23T00:31:43;2.85;;;1.85;;
25437;SDS011;13364;49.084;9.978;2023-03-23T00:34:13;2.47;;;2.00;;
25437;SDS011;13364;49.084;9.978;2023-03-23T00:36:45;2.33;;;1.65;;
25437;SDS011;13364;49.084;9.978;2023-03-23T00:39:16;1.60;;;1.50;;
25437;SDS011;13364;49.084;9.978;2023-03-23T00:41:43;2.13;;;1.80;;
25437;SDS011;13364;49.084;9.978;2023-03-23T00:44:09;1.65;;;1.52;;
25437;SDS011;13364;49.084;9.978;2023-03-23T00:46:45;2.47;;;1.60;;
25437;SDS011;13364;49.084;9.978;2023-03-23T00:49:18;2.90;;;1.63;;
25437;SDS011;13364;49.084;9.978;2023-03-23T00:51:45;2.20;;;1.17;;
25437;SDS011;13364;49.084;9.978;2023-03-23T00:54:11;1.67;;;1.52;;
25437;SDS011;13364;49.084;9.978;2023-03-23T00:56:37;1.90;;;1.30;;
25437;SDS011;13364;49.084;9.978;2023-03-23T00:59:06;2.72;;;1.70;;
25437;SDS011;13364;49.084;9.978;2023-03-23T01:01:32;2.28;;;1.50;;
25437;SDS011;13364;49.084;9.978;2023-03-23T01:03:59;2.40;;;1.40;;
25437;SDS011;13364;49.084;9.978;2023-03-23T01:06:39;2.00;;;1.45;;
25437;SDS011;13364;49.084;9.978;2023-03-23T01:09:09;2.78;;;1.50;;
25437;SDS011;13364;49.084;9.978;2023-03-23T01:11:40;1.30;;;1.20;;
25437;SDS011;13364;49.084;9.978;2023-03-23T01:14:06;2.22;;;1.25;;
25437;SDS011;13364;49.084;9.978;2023-03-23T01:16:33;3.03;;;1.30;;
25437;SDS011;13364;49.084;9.978;2023-03-23T01:18:59;3.97;;;1.42;;
25437;SDS011;13364;49.084;9.978;2023-03-23T01:21:25;1.95;;;1.35;;
25437;SDS011;13364;49.084;9.978;2023-03-23T01:23:51;1.75;;;1.23;;
25437;SDS011;13364;49.084;9.978;2023-03-23T01:26:18;2.88;;;1.60;;
25437;SDS011;13364;49.084;9.978;2023-03-23T01:28:46;3.05;;;1.50;;
25437;SDS011;13364;49.084;9.978;2023-03-23T01:31:17;8.68;;;1.20;;
25437;SDS011;13364;49.084;9.978;2023-03-23T01:33:45;1.63;;;1.27;;
25437;SDS011;13364;49.084;9.978;2023-03-23T01:36:13;4.40;;;1.60;;
25437;SDS011;13364;49.084;9.978;2023-03-23T01:38:43;2.95;;;1.67;;
25437;SDS011;13364;49.084;9.978;2023-03-23T01:41:10;2.58;;;1.30;;
25437;SDS011;13364;49.084;9.978;2023-03-23T01:46:25;1.95;;;1.33;;
25437;SDS011;13364;49.084;9.978;2023-03-23T01:48:52;1.42;;;1.33;;
25437;SDS011;13364;49.084;9.978;2023-03-23T01:51:20;3.10;;;1.33;;
25437;SDS011;13364;49.084;9.978;2023-03-23T01:56:20;1.83;;;1.25;;
25437;SDS011;13364;49.084;9.978;2023-03-23T01:58:52;4.53;;;1.60;;
25437;SDS011;13364;49.084;9.978;2023-03-23T02:01:21;2.38;;;1.70;;
25437;SDS011;13364;49.084;9.978;2023-03-23T02:03:50;4.93;;;1.20;;
25437;SDS011;13364;49.084;9.978;2023-03-23T02:06:19;1.93;;;1.40;;
25437;SDS011;13364;49.084;9.978;2023-03-23T02:09:04;1.45;;;1.30;;
25437;SDS011;13364;49.084;9.978;2023-03-23T02:11:31;2.20;;;1.48;;
25437;SDS011;13364;49.084;9.978;2023-03-23T02:13:58;1.75;;;1.35;;
25437;SDS011;13364;49.084;9.978;2023-03-23T02:25:12;1.75;;;1.40;;
25437;SDS011;13364;49.084;9.978;2023-03-23T02:39:12;2.13;;;1.45;;
25437;SDS011;13364;49.084;9.978;2023-03-23T02:41:45;1.67;;;1.30;;
25437;SDS011;13364;49.084;9.978;2023-03-23T02:44:32;1.90;;;1.52;;
25437;SDS011;13364;49.084;9.978;2023-03-23T02:47:02;1.30;;;1.20;;
25437;SDS011;13364;49.084;9.978;2023-03-23T02:49:32;2.30;;;1.40;;
25437;SDS011;13364;49.084;9.978;2023-03-23T02:52:05;1.70;;;1.40;;
25437;SDS011;13364;49.084;9.978;2023-03-23T02:54:37;2.10;;;1.38;;
25437;SDS011;13364;49.084;9.978;2023-03-23T02:57:04;1.92;;;1.42;;
25437;SDS011;13364;49.084;9.978;2023-03-23T02:59:30;3.17;;;1.50;;
25437;SDS011;13364;49.084;9.978;2023-03-23T03:02:07;1.92;;;1.23;;
25437;SDS011;13364;49.084;9.978;2023-03-23T03:04:38;1.60;;;1.25;;
25437;SDS011;13364;49.084;9.978;2023-03-23T03:10:10;1.60;;;1.33;;
25437;SDS011;13364;49.084;9.978;2023-03-23T03:13:03;1.83;;;1.23;;
25437;SDS011;13364;49.084;9.978;2023-03-23T03:15:54;3.20;;;1.30;;
25437;SDS011;13364;49.084;9.978;2023-03-23T03:21:11;1.13;;;0.65;;
25437;SDS011;13364;49.084;9.978;2023-03-23T03:23:42;1.80;;;1.52;;
25437;SDS011;13364;49.084;9.978;2023-03-23T03:26:13;2.67;;;1.67;;
25437;SDS011;13364;49.084;9.978;2023-03-23T03:28:47;1.83;;;1.35;;
25437;SDS011;13364;49.084;9.978;2023-03-23T03:31:20;2.05;;;1.33;;
25437;SDS011;13364;49.084;9.978;2023-03-23T03:33:59;1.70;;;1.17;;
25437;SDS011;13364;49.084;9.978;2023-03-23T03:36:28;2.63;;;1.30;;
25437;SDS011;13364;49.084;9.978;2023-03-23T03:39:08;1.60;;;1.38;;
25437;SDS011;13364;49.084;9.978;2023-03-23T03:41:36;3.22;;;1.35;;
25437;SDS011;13364;49.084;9.978;2023-03-23T03:44:03;3.25;;;1.50;;
25437;SDS011;13364;49.084;9.978;2023-03-23T03:46:30;4.28;;;1.60;;
25437;SDS011;13364;49.084;9.978;2023-03-23T03:48:57;2.78;;;1.40;;
25437;SDS011;13364;49.084;9.978;2023-03-23T03:51:24;2.92;;;1.58;;
25437;SDS011;13364;49.084;9.978;2023-03-23T03:53:52;2.22;;;1.40;;
25437;SDS011;13364;49.084;9.978;2023-03-23T03:56:19;1.90;;;1.10;;
25437;SDS011;13364;49.084;9.978;2023-03-23T03:58:57;2.30;;;1.23;;
25437;SDS011;13364;49.084;9.978;2023-03-23T04:01:46;2.22;;;1.55;;
25437;SDS011;13364;49.084;9.978;2023-03-23T04:04:11;4.05;;;1.42;;
25437;SDS011;13364;49.084;9.978;2023-03-23T04:06:37;1.33;;;1.23;;
25437;SDS011;13364;49.084;9.978;2023-03-23T04:09:04;2.45;;;1.67;;
25437;SDS011;13364;49.084;9.978;2023-03-23T04:11:32;3.60;;;1.70;;
25437;SDS011;13364;49.084;9.978;2023-03-23T04:14:18;1.70;;;1.40;;
25437;SDS011;13364;49.084;9.978;2023-03-23T04:16:44;3.10;;;1.13;;
25437;SDS011;13364;49.084;9.978;2023-03-23T04:19:10;5.25;;;1.42;;
25437;SDS011;13364;49.084;9.978;2023-03-23T04:21:37;4.85;;;1.30;;
25437;SDS011;13364;49.084;9.978;2023-03-23T04:24:04;1.90;;;1.33;;
25437;SDS011;13364;49.084;9.978;2023-03-23T04:26:30;3.72;;;1.65;;
25437;SDS011;13364;49.084;9.978;2023-03-23T04:29:01;2.22;;;1.40;;
25437;SDS011;13364;49.084;9.978;2023-03-23T04:31:47;1.80;;;1.60;;
25437;SDS011;13364;49.084;9.978;2023-03-23T04:34:30;2.00;;;1.60;;
25437;SDS011;13364;49.084;9.978;2023-03-23T04:36:59;3.63;;;1.60;;
25437;SDS011;13364;49.084;9.978;2023-03-23T04:39:27;5.75;;;1.77;;
25437;SDS011;13364;49.084;9.978;2023-03-23T04:44:44;1.83;;;1.38;;
25437;SDS011;13364;49.084;9.978;2023-03-23T04:47:23;2.10;;;1.20;;
25437;SDS011;13364;49.084;9.978;2023-03-23T04:49:56;3.88;;;1.70;;
25437;SDS011;13364;49.084;9.978;2023-03-23T04:52:32;1.60;;;1.08;;
25437;SDS011;13364;49.084;9.978;2023-03-23T04:55:02;3.00;;;1.23;;
25437;SDS011;13364;49.084;9.978;2023-03-23T04:57:28;1.40;;;1.13;;
25437;SDS011;13364;49.084;9.978;2023-03-23T05:00:33;2.55;;;1.17;;
25437;SDS011;13364;49.084;9.978;2023-03-23T05:03:01;3.38;;;1.10;;
25437;SDS011;13364;49.084;9.978;2023-03-23T05:05:29;2.30;;;1.30;;
25437;SDS011;13364;49.084;9.978;2023-03-23T05:07:57;2.85;;;1.55;;
25437;SDS011;13364;49.084;9.978;2023-03-23T05:10:26;2.85;;;1.48;;
25437;SDS011;13364;49.084;9.978;2023-03-23T05:15:22;2.25;;;1.23;;
25437;SDS011;13364;49.084;9.978;2023-03-23T05:17:53;1.48;;;1.38;;
25437;SDS011;13364;49.084;9.978;2023-03-23T05:20:20;1.85;;;1.30;;
25437;SDS011;13364;49.084;9.978;2023-03-23T05:22:49;1.35;;;1.10;;
25437;SDS011;13364;49.084;9.978;2023-03-23T05:25:20;1.23;;;1.13;;
25437;SDS011;13364;49.084;9.978;2023-03-23T05:27:56;1.58;;;1.23;;
25437;SDS011;13364;49.084;9.978;2023-03-23T05:30:38;3.13;;;1.23;;
25437;SDS011;13364;49.084;9.978;2023-03-23T05:33:07;1.58;;;1.17;;
25437;SDS011;13364;49.084;9.978;2023-03-23T05:35:50;4.22;;;1.52;;
25437;SDS011;13364;49.084;9.978;2023-03-23T05:38:22;1.70;;;1.20;;
25437;SDS011;13364;49.084;9.978;2023-03-23T05:40:48;4.30;;;1.95;;
25437;SDS011;13364;49.084;9.978;2023-03-23T05:43:17;3.27;;;2.20;;
25437;SDS011;13364;49.084;9.978;2023-03-23T05:45:56;1.90;;;1.60;;
25437;SDS011;13364;49.084;9.978;2023-03-23T05:48:23;1.80;;;1.52;;
25437;SDS011;13364;49.084;9.978;2023-03-23T05:50:49;2.63;;;1.40;;
25437;SDS011;13364;49.084;9.978;2023-03-23T05:53:16;1.77;;;1.45;;
25437;SDS011;13364;49.084;9.978;2023-03-23T05:55:42;2.05;;;1.38;;
25437;SDS011;13364;49.084;9.978;2023-03-23T05:58:24;4.45;;;1.80;;
25437;SDS011;13364;49.084;9.978;2023-03-23T06:00:50;5.18;;;1.70;;
25437;SDS011;13364;49.084;9.978;2023-03-23T06:03:25;1.58;;;1.45;;
25437;SDS011;13364;49.084;9.978;2023-03-23T06:06:11;2.80;;;2.03;;
25437;SDS011;13364;49.084;9.978;2023-03-23T06:08:51;6.90;;;4.63;;
25437;SDS011;13364;49.084;9.978;2023-03-23T06:11:25;9.27;;;6.18;;
25437;SDS011;13364;49.084;9.978;2023-03-23T06:14:10;6.07;;;3.33;;
25437;SDS011;13364;49.084;9.978;2023-03-23T06:16:37;6.07;;;2.40;;
25437;SDS011;13364;49.084;9.978;2023-03-23T06:19:07;6.47;;;2.95;;
25437;SDS011;13364;49.084;9.978;2023-03-23T06:24:38;2.55;;;2.30;;
25437;SDS011;13364;49.084;9.978;2023-03-23T06:27:04;4.55;;;2.75;;
25437;SDS011;13364;49.084;9.978;2023-03-23T06:29:30;2.33;;;1.80;;
25437;SDS011;13364;49.084;9.978;2023-03-23T06:31:58;2.67;;;2.40;;
25437;SDS011;13364;49.084;9.978;2023-03-23T06:34:28;2.28;;;1.95;;
25437;SDS011;13364;49.084;9.978;2023-03-23T06:37:13;3.50;;;2.13;;
25437;SDS011;13364;49.084;9.978;2023-03-23T06:39:54;2.97;;;2.28;;
25437;SDS011;13364;49.084;9.978;2023-03-23T06:42:34;6.32;;;2.85;;
25437;SDS011;13364;49.084;9.978;2023-03-23T06:45:21;1.95;;;1.83;;
25437;SDS011;13364;49.084;9.978;2023-03-23T06:50:52;1.80;;;1.70;;
25437;SDS011;13364;49.084;9.978;2023-03-23T06:56:12;1.58;;;1.35;;
25437;SDS011;13364;49.084;9.978;2023-03-23T06:58:40;2.35;;;1.60;;
25437;SDS011;13364;49.084;9.978;2023-03-23T07:01:11;2.08;;;1.75;;
25437;SDS011;13364;49.084;9.978;2023-03-23T07:03:43;6.47;;;1.75;;
25437;SDS011;13364;49.084;9.978;2023-03-23T07:06:11;1.77;;;1.60;;
25437;SDS011;13364;49.084;9.978;2023-03-23T07:08:46;1.50;;;1.40;;
25437;SDS011;13364;49.084;9.978;2023-03-23T07:11:17;3.47;;;1.42;;
25437;SDS011;13364;49.084;9.978;2023-03-23T07:13:43;3.72;;;1.40;;
25437;SDS011;13364;49.084;9.978;2023-03-23T07:16:09;1.52;;;1.42;;
25437;SDS011;13364;49.084;9.978;2023-03-23T07:18:37;1.60;;;1.50;;
25437;SDS011;13364;49.084;9.978;2023-03-23T07:21:04;3.13;;;2.00;;
25437;SDS011;13364;49.084;9.978;2023-03-23T07:23:31;3.25;;;1.90;;
25437;SDS011;13364;49.084;9.978;2023-03-23T07:26:02;2.05;;;1.80;;
25437;SDS011;13364;49.084;9.978;2023-03-23T07:29:02;1.85;;;1.75;;
25437;SDS011;13364;49.084;9.978;2023-03-23T07:31:34;2.13;;;1.92;;
25437;SDS011;13364;49.084;9.978;2023-03-23T07:34:01;3.97;;;1.88;;
25437;SDS011;13364;49.084;9.978;2023-03-23T07:36:38;21.08;;;12.52;;
25437;SDS011;13364;49.084;9.978;2023-03-23T07:39:06;9.35;;;6.15;;
25437;SDS011;13364;49.084;9.978;2023-03-23T07:41:32;2.47;;;2.15;;
25437;SDS011;13364;49.084;9.978;2023-03-23T07:44:02;3.20;;;2.17;;
25437;SDS011;13364;49.084;9.978;2023-03-23T07:46:33;3.13;;;1.90;;
25437;SDS011;13364;49.084;9.978;2023-03-23T07:49:17;2.60;;;2.20;;
25437;SDS011;13364;49.084;9.978;2023-03-23T07:51:51;3.50;;;2.13;;
25437;SDS011;13364;49.084;9.978;2023-03-23T07:54:18;3.95;;;2.83;;
25437;SDS011;13364;49.084;9.978;2023-03-23T07:57:19;3.25;;;2.35;;
25437;SDS011;13364;49.084;9.978;2023-03-23T07:59:50;2.45;;;1.98;;
25437;SDS011;13364;49.084;9.978;2023-03-23T08:02:16;6.20;;;2.17;;
25437;SDS011;13364;49.084;9.978;2023-03-23T08:05:00;3.70;;;2.20;;
25437;SDS011;13364;49.084;9.978;2023-03-23T08:07:47;2.28;;;1.80;;
25437;SDS011;13364;49.084;9.978;2023-03-23T08:10:29;3.35;;;1.90;;
25437;SDS011;13364;49.084;9.978;2023-03-23T08:13:04;5.53;;;1.85;;
25437;SDS011;13364;49.084;9.978;2023-03-23T08:15:43;2.53;;;2.10;;
25437;SDS011;13364;49.084;9.978;2023-03-23T08:18:30;2.92;;;2.22;;
25437;SDS011;13364;49.084;9.978;2023-03-23T08:21:25;2.83;;;1.80;;
25437;SDS011;13364;49.084;9.978;2023-03-23T08:24:21;4.22;;;1.73;;
25437;SDS011;13364;49.084;9.978;2023-03-23T08:27:25;3.70;;;1.75;;
25437;SDS011;13364;49.084;9.978;2023-03-23T08:33:04;3.80;;;1.80;;
25437;SDS011;13364;49.084;9.978;2023-03-23T08:35:56;2.97;;;2.40;;
25437;SDS011;13364;49.084;9.978;2023-03-23T08:39:00;2.53;;;2.00;;
25437;SDS011;13364;49.084;9.978;2023-03-23T08:41:41;3.08;;;1.73;;
25437;SDS011;13364;49.084;9.978;2023-03-23T08:44:17;2.08;;;1.60;;
25437;SDS011;13364;49.084;9.978;2023-03-23T08:47:04;2.40;;;1.63;;
25437;SDS011;13364;49.084;9.978;2023-03-23T08:49:51;5.00;;;2.30;;
25437;SDS011;13364;49.084;9.978;2023-03-23T08:52:37;2.42;;;2.13;;
25437;SDS011;13364;49.084;9.978;2023-03-23T08:55:22;3.55;;;1.98;;
25437;SDS011;13364;49.084;9.978;2023-03-23T08:58:19;3.95;;;2.08;;
25437;SDS011;13364;49.084;9.978;2023-03-23T09:01:19;2.08;;;1.55;;
25437;SDS011;13364;49.084;9.978;2023-03-23T09:03:55;2.35;;;1.98;;
25437;SDS011;13364;49.084;9.978;2023-03-23T09:06:41;3.90;;;1.90;;
25437;SDS011;13364;49.084;9.978;2023-03-23T09:09:08;3.28;;;1.92;;
25437;SDS011;13364;49.084;9.978;2023-03-23T09:11:34;3.30;;;1.80;;
25437;SDS011;13364;49.084;9.978;2023-03-23T09:14:04;3.53;;;2.00;;
25437;SDS011;13364;49.084;9.978;2023-03-23T09:16:31;4.70;;;1.83;;
25437;SDS011;13364;49.084;9.978;2023-03-23T09:18:58;5.50;;;2.22;;
25437;SDS011;13364;49.084;9.978;2023-03-23T09:24:13;4.55;;;2.25;;
25437;SDS011;13364;49.084;9.978;2023-03-23T09:26:39;5.35;;;2.05;;
25437;SDS011;13364;49.084;9.978;2023-03-23T09:29:05;2.08;;;1.83;;
25437;SDS011;13364;49.084;9.978;2023-03-23T09:31:31;2.88;;;2.08;;
25437;SDS011;13364;49.084;9.978;2023-03-23T09:33:57;4.03;;;1.80;;
25437;SDS011;13364;49.084;9.978;2023-03-23T09:36:24;2.17;;;1.70;;
25437;SDS011;13364;49.084;9.978;2023-03-23T09:38:57;2.17;;;1.83;;
25437;SDS011;13364;49.084;9.978;2023-03-23T09:50:30;7.15;;;1.85;;
25437;SDS011;13364;49.084;9.978;2023-03-23T09:53:18;3.40;;;1.98;;
25437;SDS011;13364;49.084;9.978;2023-03-23T09:55:47;2.53;;;1.85;;
25437;SDS011;13364;49.084;9.978;2023-03-23T09:58:35;5.75;;;2.03;;
25437;SDS011;13364;49.084;9.978;2023-03-23T10:01:27;3.25;;;1.67;;
25437;SDS011;13364;49.084;9.978;2023-03-23T10:04:10;2.67;;;1.70;;
25437;SDS011;13364;49.084;9.978;2023-03-23T10:06:47;13.63;;;2.80;;
25437;SDS011;13364;49.084;9.978;2023-03-23T10:09:15;5.00;;;1.77;;
25437;SDS011;13364;49.084;9.978;2023-03-23T10:17:50;2.65;;;1.90;;
25437;SDS011;13364;49.084;9.978;2023-03-23T10:20:30;2.90;;;2.20;;
25437;SDS011;13364;49.084;9.978;2023-03-23T10:23:10;2.30;;;2.00;;
25437;SDS011;13364;49.084;9.978;2023-03-23T10:26:04;5.50;;;1.70;;
25437;SDS011;13364;49.084;9.978;2023-03-23T10:28:54;6.53;;;2.22;;
25437;SDS011;13364;49.084;9.978;2023-03-23T10:34:31;3.70;;;1.85;;
25437;SDS011;13364;49.084;9.978;2023-03-23T10:42:49;5.00;;;1.88;;
25437;SDS011;13364;49.084;9.978;2023-03-23T10:52:30;2.88;;;1.60;;
25437;SDS011;13364;49.084;9.978;2023-03-23T10:57:33;3.83;;;1.40;;
25437;SDS011;13364;49.084;9.978;2023-03-23T11:00:04;1.85;;;1.50;;
25437;SDS011;13364;49.084;9.978;2023-03-23T11:02:45;1.88;;;1.30;;
25437;SDS011;13364;49.084;9.978;2023-03-23T11:08:20;10.60;;;2.03;;
25437;SDS011;13364;49.084;9.978;2023-03-23T11:10:53;3.20;;;1.70;;
25437;SDS011;13364;49.084;9.978;2023-03-23T11:13:20;2.05;;;1.50;;
25437;SDS011;13364;49.084;9.978;2023-03-23T11:15:50;4.18;;;2.22;;
25437;SDS011;13364;49.084;9.978;2023-03-23T11:21:45;2.35;;;1.20;;
25437;SDS011;13364;49.084;9.978;2023-03-23T11:24:24;2.20;;;1.92;;
25437;SDS011;13364;49.084;9.978;2023-03-23T11:26:51;3.22;;;1.52;;
25437;SDS011;13364;49.084;9.978;2023-03-23T11:29:22;2.63;;;2.03;;
25437;SDS011;13364;49.084;9.978;2023-03-23T11:31:51;3.83;;;1.40;;
25437;SDS011;13364;49.084;9.978;2023-03-23T11:34:33;1.65;;;1.50;;
25437;SDS011;13364;49.084;9.978;2023-03-23T11:37:06;3.07;;;1.47;;
25437;SDS011;13364;49.084;9.978;2023-03-23T11:42:36;1.83;;;1.50;;
25437;SDS011;13364;49.084;9.978;2023-03-23T11:46:05;1.63;;;1.20;;
25437;SDS011;13364;49.084;9.978;2023-03-23T11:51:02;1.67;;;1.10;;
25437;SDS011;13364;49.084;9.978;2023-03-23T11:53:47;1.45;;;1.30;;
25437;SDS011;13364;49.084;9.978;2023-03-23T11:56:34;3.25;;;1.40;;
25437;SDS011;13364;49.084;9.978;2023-03-23T11:59:01;2.28;;;1.30;;
25437;SDS011;13364;49.084;9.978;2023-03-23T12:13:42;2.33;;;1.67;;
25437;SDS011;13364;49.084;9.978;2023-03-23T12:16:30;2.97;;;1.13;;
25437;SDS011;13364;49.084;9.978;2023-03-23T12:19:21;1.20;;;1.10;;
25437;SDS011;13364;49.084;9.978;2023-03-23T12:30:31;3.35;;;1.67;;
25437;SDS011;13364;49.084;9.978;2023-03-23T12:36:19;1.65;;;1.33;;
25437;SDS011;13364;49.084;9.978;2023-03-23T12:39:34;2.33;;;1.58;;
25437;SDS011;13364;49.084;9.978;2023-03-23T12:42:36;5.90;;;2.10;;
25437;SDS011;13364;49.084;9.978;2023-03-23T12:47:56;1.77;;;1.42;;
25437;SDS011;13364;49.084;9.978;2023-03-23T12:50:45;1.80;;;1.65;;
25437;SDS011;13364;49.084;9.978;2023-03-23T12:53:35;3.38;;;1.83;;
25437;SDS011;13364;49.084;9.978;2023-03-23T13:07:51;2.80;;;1.73;;
25437;SDS011;13364;49.084;9.978;2023-03-23T13:10:32;3.20;;;2.20;;
25437;SDS011;13364;49.084;9.978;2023-03-23T13:13:01;2.95;;;2.00;;
25437;SDS011;13364;49.084;9.978;2023-03-23T13:23:48;3.35;;;1.92;;
25437;SDS011;13364;49.084;9.978;2023-03-23T13:26:22;2.00;;;1.75;;
25437;SDS011;13364;49.084;9.978;2023-03-23T13:28:56;2.03;;;1.60;;
25437;SDS011;13364;49.084;9.978;2023-03-23T13:31:28;2.72;;;2.20;;
25437;SDS011;13364;49.084;9.978;2023-03-23T13:34:05;2.88;;;1.50;;
25437;SDS011;13364;49.084;9.978;2023-03-23T13:36:42;2.10;;;1.80;;
25437;SDS011;13364;49.084;9.978;2023-03-23T13:53:29;4.72;;;1.95;;
25437;SDS011;13364;49.084;9.978;2023-03-23T13:56:16;2.53;;;2.25;;
25437;SDS011;13364;49.084;9.978;2023-03-23T13:59:35;5.07;;;2.50;;
25437;SDS011;13364;49.084;9.978;2023-03-23T14:04:56;2.83;;;2.47;;
25437;SDS011;13364;49.084;9.978;2023-03-23T14:10:53;4.65;;;2.25;;
25437;SDS011;13364;49.084;9.978;2023-03-23T14:13:30;3.50;;;1.80;;
25437;SDS011;13364;49.084;9.978;2023-03-23T14:19:00;3.72;;;2.03;;
25437;SDS011;13364;49.084;9.978;2023-03-23T14:26:05;4.85;;;2.25;;
25437;SDS011;13364;49.084;9.978;2023-03-23T14:28:43;4.57;;;2.72;;
25437;SDS011;13364;49.084;9.978;2023-03-23T14:31:21;3.43;;;2.60;;
25437;SDS011;13364;49.084;9.978;2023-03-23T14:33:49;2.30;;;2.10;;
25437;SDS011;13364;49.084;9.978;2023-03-23T14:36:23;3.53;;;2.80;;
25437;SDS011;13364;49.084;9.978;2023-03-23T14:41:32;3.40;;;2.65;;
25437;SDS011;13364;49.084;9.978;2023-03-23T14:44:00;2.88;;;2.17;;
25437;SDS011;13364;49.084;9.978;2023-03-23T14:46:29;3.97;;;2.50;;
25437;SDS011;13364;49.084;9.978;2023-03-23T14:48:56;4.07;;;3.03;;
25437;SDS011;13364;49.084;9.978;2023-03-23T14:51:29;3.22;;;2.70;;
25437;SDS011;13364;49.084;9.978;2023-03-23T14:53:57;2.45;;;2.17;;
25437;SDS011;13364;49.084;9.978;2023-03-23T14:56:30;2.90;;;1.88;;
25437;SDS011;13364;49.084;9.978;2023-03-23T14:59:02;3.88;;;2.30;;
25437;SDS011;13364;49.084;9.978;2023-03-23T15:01:30;4.43;;;2.28;;
25437;SDS011;13364;49.084;9.978;2023-03-23T15:04:02;3.20;;;2.20;;
25437;SDS011;13364;49.084;9.978;2023-03-23T15:06:33;2.42;;;1.80;;
25437;SDS011;13364;49.084;9.978;2023-03-23T15:09:02;3.10;;;2.47;;
25437;SDS011;13364;49.084;9.978;2023-03-23T15:11:40;2.83;;;2.20;;
25437;SDS011;13364;49.084;9.978;2023-03-23T15:14:17;3.28;;;2.47;;
25437;SDS011;13364;49.084;9.978;2023-03-23T15:16:48;3.58;;;2.33;;
25437;SDS011;13364;49.084;9.978;2023-03-23T15:19:21;3.92;;;2.50;;
25437;SDS011;13364;49.084;9.978;2023-03-23T15:24:32;4.68;;;2.85;;
25437;SDS011;13364;49.084;9.978;2023-03-23T15:27:52;3.67;;;2.30;;
25437;SDS011;13364;49.084;9.978;2023-03-23T15:29:58;3.23;;;2.30;;
25437;SDS011;13364;49.084;9.978;2023-03-23T15:32:37;5.15;;;2.05;;
25437;SDS011;13364;49.084;9.978;2023-03-23T15:35:11;2.90;;;2.00;;
25437;SDS011;13364;49.084;9.978;2023-03-23T15:37:47;3.83;;;1.88;;
25437;SDS011;13364;49.084;9.978;2023-03-23T15:40:16;3.15;;;2.22;;
25437;SDS011;13364;49.084;9.978;2023-03-23T15:42:44;5.72;;;2.75;;
25437;SDS011;13364;49.084;9.978;2023-03-23T15:47:44;4.20;;;2.72;;
25437;SDS011;13364;49.084;9.978;2023-03-23T15:50:13;3.35;;;2.78;;
25437;SDS011;13364;49.084;9.978;2023-03-23T15:52:45;4.22;;;1.95;;
25437;SDS011;13364;49.084;9.978;2023-03-23T15:55:26;3.92;;;2.10;;
25437;SDS011;13364;49.084;9.978;2023-03-23T15:57:57;5.50;;;2.00;;
25437;SDS011;13364;49.084;9.978;2023-03-23T16:00:25;4.55;;;1.85;;
25437;SDS011;13364;49.084;9.978;2023-03-23T16:02:54;3.25;;;2.35;;
25437;SDS011;13364;49.084;9.978;2023-03-23T16:05:26;2.85;;;2.50;;
25437;SDS011;13364;49.084;9.978;2023-03-23T16:07:53;4.57;;;2.33;;
25437;SDS011;13364;49.084;9.978;2023-03-23T16:10:22;4.07;;;2.55;;
25437;SDS011;13364;49.084;9.978;2023-03-23T16:16:21;9.10;;;5.13;;
25437;SDS011;13364;49.084;9.978;2023-03-23T16:18:52;6.93;;;4.65;;
25437;SDS011;13364;49.084;9.978;2023-03-23T16:21:20;7.68;;;4.38;;
25437;SDS011;13364;49.084;9.978;2023-03-23T16:23:48;6.18;;;4.80;;
25437;SDS011;13364;49.084;9.978;2023-03-23T16:26:15;3.30;;;3.00;;
25437;SDS011;13364;49.084;9.978;2023-03-23T16:28:43;5.72;;;3.17;;
25437;SDS011;13364;49.084;9.978;2023-03-23T16:31:10;3.78;;;2.08;;
25437;SDS011;13364;49.084;9.978;2023-03-23T16:33:37;2.38;;;1.95;;
25437;SDS011;13364;49.084;9.978;2023-03-23T16:36:05;3.58;;;2.55;;
25437;SDS011;13364;49.084;9.978;2023-03-23T16:38:33;8.82;;;2.53;;
25437;SDS011;13364;49.084;9.978;2023-03-23T16:41:16;6.72;;;3.78;;
25437;SDS011;13364;49.084;9.978;2023-03-23T16:43:43;6.40;;;3.08;;
25437;SDS011;13364;49.084;9.978;2023-03-23T16:46:11;3.38;;;2.63;;
25437;SDS011;13364;49.084;9.978;2023-03-23T16:48:39;3.60;;;2.67;;
25437;SDS011;13364;49.084;9.978;2023-03-23T16:51:06;6.55;;;3.20;;
25437;SDS011;13364;49.084;9.978;2023-03-23T16:53:34;14.07;;;5.55;;
25437;SDS011;13364;49.084;9.978;2023-03-23T16:56:02;13.38;;;7.68;;
25437;SDS011;13364;49.084;9.978;2023-03-23T16:58:30;9.30;;;4.97;;
25437;SDS011;13364;49.084;9.978;2023-03-23T17:00:57;16.48;;;7.72;;
25437;SDS011;13364;49.084;9.978;2023-03-23T17:03:31;12.15;;;6.43;;
25437;SDS011;13364;49.084;9.978;2023-03-23T17:05:59;5.50;;;4.30;;
25437;SDS011;13364;49.084;9.978;2023-03-23T17:08:27;7.95;;;5.38;;
25437;SDS011;13364;49.084;9.978;2023-03-23T17:10:54;7.75;;;5.28;;
25437;SDS011;13364;49.084;9.978;2023-03-23T17:13:21;6.05;;;4.82;;
25437;SDS011;13364;49.084;9.978;2023-03-23T17:15:51;5.82;;;4.35;;
25437;SDS011;13364;49.084;9.978;2023-03-23T17:18:20;4.18;;;3.78;;
25437;SDS011;13364;49.084;9.978;2023-03-23T17:20:48;6.80;;;3.05;;
25437;SDS011;13364;49.084;9.978;2023-03-23T17:23:17;3.80;;;2.47;;
25437;SDS011;13364;49.084;9.978;2023-03-23T17:25:45;3.25;;;2.60;;
25437;SDS011;13364;49.084;9.978;2023-03-23T17:28:13;3.85;;;2.45;;
25437;SDS011;13364;49.084;9.978;2023-03-23T17:30:41;4.15;;;2.70;;
25437;SDS011;13364;49.084;9.978;2023-03-23T17:33:09;2.95;;;2.17;;
25437;SDS011;13364;49.084;9.978;2023-03-23T17:35:37;5.30;;;2.20;;
25437;SDS011;13364;49.084;9.978;2023-03-23T17:38:04;4.55;;;2.47;;
25437;SDS011;13364;49.084;9.978;2023-03-23T17:40:32;4.03;;;2.80;;
25437;SDS011;13364;49.084;9.978;2023-03-23T17:42:59;4.88;;;2.30;;
25437;SDS011;13364;49.084;9.978;2023-03-23T17:45:26;2.63;;;2.10;;
25437;SDS011;13364;49.084;9.978;2023-03-23T17:47:53;4.20;;;2.63;;
25437;SDS011;13364;49.084;9.978;2023-03-23T17:50:20;4.90;;;2.17;;
25437;SDS011;13364;49.084;9.978;2023-03-23T17:52:47;3.85;;;2.42;;
25437;SDS011;13364;49.084;9.978;2023-03-23T17:55:15;4.97;;;2.65;;
25437;SDS011;13364;49.084;9.978;2023-03-23T17:57:42;2.88;;;2.15;;
25437;SDS011;13364;49.084;9.978;2023-03-23T18:00:11;5.32;;;2.50;;
25437;SDS011;13364;49.084;9.978;2023-03-23T18:02:43;4.00;;;2.40;;
25437;SDS011;13364;49.084;9.978;2023-03-23T18:05:19;3.40;;;2.35;;
25437;SDS011;13364;49.084;9.978;2023-03-23T18:08:45;3.35;;;2.28;;
25437;SDS011;13364;49.084;9.978;2023-03-23T18:11:12;4.40;;;2.72;;
25437;SDS011;13364;49.084;9.978;2023-03-23T18:13:39;4.18;;;2.15;;
25437;SDS011;13364;49.084;9.978;2023-03-23T18:16:07;3.15;;;2.42;;
25437;SDS011;13364;49.084;9.978;2023-03-23T18:18:34;4.95;;;2.78;;
25437;SDS011;13364;49.084;9.978;2023-03-23T18:21:07;4.10;;;2.40;;
25437;SDS011;13364;49.084;9.978;2023-03-23T18:23:35;3.72;;;2.90;;
25437;SDS011;13364;49.084;9.978;2023-03-23T18:26:18;3.95;;;2.67;;
25437;SDS011;13364;49.084;9.978;2023-03-23T18:28:52;3.83;;;2.58;;